createdAt,value
2019-06-07T00:00:37.262Z,16.50
2019-06-07T00:04:21.471Z,16.40
2019-06-07T00:08:29.196Z,15.60
2019-06-07T00:12:35.079Z,15.50
2019-06-07T00:16:41.008Z,16.00
2019-06-07T00:20:46.735Z,15.40
2019-06-07T00:24:52.502Z,15.70
2019-06-07T00:28:58.625Z,16.10
2019-06-07T00:33:04.528Z,16.70
2019-06-07T00:37:11.175Z,16.60
2019-06-07T00:41:19.324Z,15.90
2019-06-07T00:45:25.238Z,16.10
2019-06-07T00:49:40.448Z,15.80
2019-06-07T00:53:38.591Z,15.30
2019-06-07T00:57:44.773Z,15.60
2019-06-07T01:01:50.538Z,16.20
2019-06-07T01:05:57.242Z,17.00
2019-06-07T01:10:03.721Z,15.60
2019-06-07T01:14:09.628Z,14.90
2019-06-07T01:22:28.400Z,14.50
2019-06-07T01:26:30.631Z,14.00
2019-06-07T01:30:36.616Z,13.60
2019-06-07T01:34:42.331Z,14.00
2019-06-07T01:38:48.151Z,14.20
2019-06-07T01:42:54.228Z,13.50
2019-06-07T01:47:00.125Z,13.40
2019-06-07T01:51:05.906Z,13.00
2019-06-07T01:55:13.013Z,12.70
2019-06-07T01:59:21.948Z,12.70
2019-06-07T02:03:32.174Z,12.90
2019-06-07T02:07:33.840Z,12.90
2019-06-07T02:11:39.594Z,13.00
2019-06-07T02:15:45.475Z,13.60
2019-06-07T02:19:51.195Z,13.60
2019-06-07T02:23:56.988Z,13.50
2019-06-07T02:28:26.676Z,13.40
2019-06-07T02:32:10.140Z,14.00
2019-06-07T02:36:15.993Z,13.70
2019-06-07T02:40:22.087Z,13.30
2019-06-07T02:44:32.163Z,13.50
2019-06-07T02:48:39.900Z,13.90
2019-06-07T02:52:42.977Z,13.70
2019-06-07T03:01:06.697Z,13.20
2019-06-07T03:05:04.066Z,14.10
2019-06-07T03:09:10.339Z,13.70
2019-06-07T03:13:20.182Z,13.20
2019-06-07T03:17:38.325Z,13.00
2019-06-07T03:21:43.563Z,13.70
2019-06-07T03:25:52.533Z,13.80
2019-06-07T03:29:58.405Z,13.80
2019-06-07T03:34:04.209Z,14.20
2019-06-07T03:38:09.936Z,14.30
2019-06-07T03:42:15.803Z,13.70
2019-06-07T03:46:21.579Z,14.30
2019-06-07T03:50:30.609Z,13.90
2019-06-07T03:54:37.011Z,13.30
2019-06-07T03:58:49.490Z,13.80
2019-06-07T04:02:49.704Z,14.30
2019-06-07T04:06:55.420Z,13.70
2019-06-07T04:11:01.169Z,13.10
2019-06-07T04:15:08.163Z,13.40
2019-06-07T04:19:13.860Z,13.40
2019-06-07T04:23:29.880Z,13.00
2019-06-07T04:27:27.973Z,13.20
2019-06-07T04:31:36.294Z,13.00
2019-06-07T04:35:43.337Z,12.90
2019-06-07T04:39:50.435Z,13.20
2019-06-07T04:43:59.522Z,13.90
2019-06-07T04:48:07.490Z,13.60
2019-06-07T04:52:15.127Z,13.50
2019-06-07T04:56:20.933Z,13.20
2019-06-07T05:00:58.439Z,13.30
2019-06-07T05:04:44.065Z,13.60
2019-06-07T05:08:49.992Z,14.30
2019-06-07T05:12:55.774Z,14.80
2019-06-07T05:17:01.594Z,14.80
2019-06-07T05:21:07.384Z,14.70
2019-06-07T05:25:13.217Z,14.90
2019-06-07T05:29:19.133Z,14.90
2019-06-07T05:33:25.338Z,14.90
2019-06-07T05:37:32.550Z,14.70
2019-06-07T05:41:42.740Z,15.00
2019-06-07T05:45:47.226Z,14.80
2019-06-07T05:49:53.263Z,14.40
2019-06-07T05:53:59.110Z,14.40
2019-06-07T05:58:05.072Z,15.00
2019-06-07T06:02:22.251Z,15.20
2019-06-07T06:06:19.458Z,15.80
2019-06-07T06:10:25.258Z,16.00
2019-06-07T06:14:31.049Z,15.80
2019-06-07T06:18:38.033Z,15.40
2019-06-07T06:22:48.126Z,15.50
2019-06-07T06:26:57.019Z,15.90
2019-06-07T06:30:58.892Z,17.00
2019-06-07T06:35:07.084Z,17.30
2019-06-07T06:39:12.968Z,17.30
2019-06-07T06:43:18.786Z,17.80
2019-06-07T06:47:24.598Z,18.10
2019-06-07T06:51:30.380Z,18.50
2019-06-07T06:55:36.186Z,19.30
2019-06-07T06:59:43.691Z,19.20
2019-06-07T07:04:07.270Z,18.80
2019-06-07T07:07:57.195Z,18.90
2019-06-07T07:12:12.057Z,19.00
2019-06-07T07:16:10.623Z,19.00
2019-06-07T07:20:16.656Z,19.20
2019-06-07T07:24:22.654Z,19.40
2019-06-07T07:28:28.659Z,19.70
2019-06-07T07:32:35.162Z,19.90
2019-06-07T07:36:40.940Z,20.30
2019-06-07T07:41:14.024Z,20.90
2019-06-07T07:44:56.536Z,21.40
2019-06-07T07:49:01.980Z,21.70
2019-06-07T07:53:08.702Z,22.00
2019-06-07T07:57:14.411Z,22.40
2019-06-07T08:01:20.132Z,22.80
2019-06-07T08:05:41.830Z,23.10
2019-06-07T08:09:33.659Z,23.20
2019-06-07T08:17:41.562Z,23.20
2019-06-07T08:21:48.928Z,23.80
2019-06-07T08:25:57.311Z,24.00
2019-06-07T08:30:35.317Z,24.20
2019-06-07T08:34:11.447Z,24.40
2019-06-07T08:38:29.804Z,24.60
2019-06-07T08:42:36.570Z,24.70
2019-06-07T08:46:32.327Z,24.70
2019-06-07T08:50:38.123Z,25.00
2019-06-07T08:54:44.472Z,24.90
2019-06-07T08:58:54.961Z,24.70
2019-06-07T09:03:02.841Z,24.40
2019-06-07T09:07:18.779Z,23.80
2019-06-07T09:11:13.475Z,24.20
2019-06-07T09:15:23.621Z,25.30
2019-06-07T09:19:27.156Z,25.90
2019-06-07T09:23:32.886Z,26.20
2019-06-07T09:27:39.319Z,26.50
2019-06-07T09:31:53.710Z,26.70
2019-06-07T09:35:52.602Z,27.10
2019-06-07T09:40:05.577Z,27.40
2019-06-07T09:44:21.474Z,27.70
2019-06-07T09:48:23.930Z,27.90
2019-06-07T09:52:20.966Z,28.20
2019-06-07T09:56:26.754Z,28.10
2019-06-07T10:00:41.038Z,28.60
2019-06-07T10:04:40.019Z,28.90
2019-06-07T10:10:08.239Z,29.20
2019-06-07T10:12:53.609Z,29.30
2019-06-07T10:17:00.827Z,29.00
2019-06-07T10:21:07.816Z,29.50
2019-06-07T10:25:14.652Z,30.20
2019-06-07T10:29:21.113Z,30.50
2019-06-07T10:33:27.082Z,30.80
2019-06-07T10:37:32.804Z,31.20
2019-06-07T10:41:38.526Z,31.10
2019-06-07T10:45:44.316Z,31.60
2019-06-07T10:49:51.036Z,31.80
2019-06-07T10:53:56.759Z,32.10
2019-06-07T10:58:02.816Z,32.60
2019-06-07T11:02:09.728Z,32.60
2019-06-07T11:06:17.135Z,32.90
2019-06-07T11:10:24.303Z,33.10
2019-06-07T11:14:30.262Z,32.60
2019-06-07T11:18:35.979Z,32.80
2019-06-07T11:22:41.696Z,33.00
2019-06-07T11:26:47.522Z,33.30
2019-06-07T11:30:53.490Z,33.40
2019-06-07T11:34:59.205Z,33.00
2019-06-07T11:39:08.424Z,33.60
2019-06-07T11:43:14.932Z,33.40
2019-06-07T11:47:20.752Z,33.70
2019-06-07T11:51:28.973Z,33.30
2019-06-07T11:55:34.840Z,33.70
2019-06-07T11:59:40.545Z,34.10
2019-06-07T12:03:46.617Z,34.60
2019-06-07T12:07:52.340Z,34.40
2019-06-07T12:11:58.125Z,34.50
2019-06-07T12:16:03.924Z,34.90
2019-06-07T12:20:14.270Z,34.70
2019-06-07T12:24:21.143Z,35.20
2019-06-07T12:28:27.007Z,34.70
2019-06-07T12:32:32.732Z,34.80
2019-06-07T12:36:39.510Z,34.90
2019-06-07T12:40:57.192Z,35.10
2019-06-07T12:44:53.673Z,35.10
2019-06-07T12:48:59.400Z,35.00
2019-06-07T12:53:05.743Z,34.00
2019-06-07T12:57:11.497Z,34.40
2019-06-07T13:01:18.270Z,34.50
2019-06-07T13:05:24.221Z,34.20
2019-06-07T13:09:30.480Z,34.70
2019-06-07T13:13:36.571Z,33.80
2019-06-07T13:17:42.279Z,33.20
2019-06-07T13:21:49.540Z,34.00
2019-06-07T13:25:55.524Z,33.90
2019-06-07T13:30:09.946Z,33.50
2019-06-07T13:34:11.389Z,33.70
2019-06-07T13:38:26.765Z,33.90
2019-06-07T13:42:33.728Z,34.80
2019-06-07T13:46:39.447Z,34.70
2019-06-07T13:50:45.415Z,34.90
2019-06-07T13:54:51.675Z,34.90
2019-06-07T13:58:57.783Z,35.20
2019-06-07T14:03:03.540Z,34.90
2019-06-07T14:07:09.397Z,34.90
2019-06-07T14:11:15.248Z,34.70
2019-06-07T14:15:22.318Z,34.70
2019-06-07T14:19:28.719Z,34.20
2019-06-07T14:23:47.991Z,34.00
2019-06-07T14:27:42.043Z,33.70
2019-06-07T14:31:47.953Z,33.80
2019-06-07T14:35:53.653Z,33.40
2019-06-07T14:39:59.406Z,33.50
2019-06-07T14:44:06.217Z,33.10
2019-06-07T14:48:12.016Z,33.00
2019-06-07T14:52:17.732Z,32.40
2019-06-07T14:56:24.795Z,33.00
2019-06-07T15:00:40.641Z,32.80
2019-06-07T15:04:48.589Z,32.90
2019-06-07T15:08:54.452Z,33.30
2019-06-07T15:13:00.155Z,33.00
2019-06-07T15:17:05.921Z,32.90
2019-06-07T15:21:11.730Z,32.30
2019-06-07T15:25:17.626Z,32.10
2019-06-07T15:29:23.352Z,31.60
2019-06-07T15:33:29.717Z,31.40
2019-06-07T15:37:36.674Z,31.70
2019-06-07T15:41:42.385Z,32.10
2019-06-07T15:45:48.183Z,31.00
2019-06-07T15:49:54.057Z,31.20
2019-06-07T15:53:59.774Z,31.10
2019-06-07T15:58:05.655Z,30.80
2019-06-07T16:02:11.499Z,30.40
2019-06-07T16:06:19.614Z,30.30
2019-06-07T16:10:25.874Z,30.80
2019-06-07T16:14:33.101Z,30.50
2019-06-07T16:18:39.694Z,30.30
2019-06-07T16:22:45.468Z,30.10
2019-06-07T16:26:51.215Z,30.10
2019-06-07T16:30:56.988Z,30.10
2019-06-07T16:35:02.783Z,29.30
2019-06-07T16:39:09.988Z,28.70
2019-06-07T16:43:17.942Z,28.30
2019-06-07T16:47:23.140Z,28.10
2019-06-07T16:51:28.881Z,27.80
2019-06-07T16:55:34.584Z,27.50
2019-06-07T16:59:40.933Z,27.40
2019-06-07T17:03:47.639Z,27.50
2019-06-07T17:07:53.492Z,27.40
2019-06-07T17:11:59.210Z,27.20
2019-06-07T17:16:06.019Z,27.00
2019-06-07T17:20:12.576Z,26.90
2019-06-07T17:24:18.367Z,26.80
2019-06-07T17:28:24.191Z,26.40
2019-06-07T17:32:29.919Z,26.20
2019-06-07T17:36:35.644Z,26.10
2019-06-07T17:40:42.693Z,25.80
2019-06-07T17:44:49.251Z,25.50
2019-06-07T17:48:55.277Z,25.30
2019-06-07T17:53:00.975Z,25.00
2019-06-07T17:57:06.731Z,24.70
2019-06-07T18:01:12.452Z,24.80
2019-06-07T18:05:19.804Z,24.30
2019-06-07T18:09:26.619Z,24.50
2019-06-07T18:13:32.348Z,24.10
2019-06-07T18:17:38.140Z,22.80
2019-06-07T18:21:44.989Z,23.40
2019-06-07T18:25:50.751Z,23.60
2019-06-07T18:29:56.542Z,23.50
2019-06-07T18:34:02.317Z,23.70
2019-06-07T18:38:10.743Z,23.30
2019-06-07T18:42:15.635Z,23.50
2019-06-07T18:46:22.541Z,23.90
2019-06-07T18:50:28.259Z,22.60
2019-06-07T18:54:33.996Z,23.00
2019-06-07T18:58:39.853Z,23.40
2019-06-07T19:02:45.597Z,22.90
2019-06-07T19:06:52.232Z,22.70
2019-06-07T19:10:58.998Z,23.20
2019-06-07T19:15:11.738Z,22.80
2019-06-07T19:19:17.629Z,22.90
2019-06-07T19:23:23.332Z,23.40
2019-06-07T19:27:32.596Z,23.40
2019-06-07T19:31:36.960Z,22.00
2019-06-07T19:35:42.673Z,21.30
2019-06-07T19:39:48.368Z,20.60
2019-06-07T19:43:54.271Z,21.50
2019-06-07T19:48:00.795Z,21.50
2019-06-07T19:52:06.663Z,22.00
2019-06-07T19:56:13.423Z,21.50
2019-06-07T20:00:21.156Z,22.40
2019-06-07T20:04:26.892Z,21.50
2019-06-07T20:08:32.649Z,20.70
2019-06-07T20:12:38.386Z,20.30
2019-06-07T20:16:44.114Z,20.00
2019-06-07T20:20:49.888Z,21.10
2019-06-07T20:25:29.534Z,21.70
2019-06-07T20:29:35.325Z,22.10
2019-06-07T20:33:41.264Z,21.80
2019-06-07T20:37:46.981Z,21.40
2019-06-07T20:41:52.868Z,20.80
2019-06-07T20:46:00.709Z,19.60
2019-06-07T20:50:09.500Z,19.50
2019-06-07T20:54:15.271Z,19.00
2019-06-07T20:58:20.999Z,19.40
2019-06-07T21:02:26.725Z,19.10
2019-06-07T21:06:32.513Z,19.10
2019-06-07T21:10:38.345Z,19.10
2019-06-07T21:14:44.130Z,19.30
2019-06-07T21:18:49.855Z,19.60
2019-06-07T21:22:55.565Z,19.10
2019-06-07T21:27:01.716Z,19.60
2019-06-07T21:31:10.487Z,18.80
2019-06-07T21:35:16.575Z,18.10
2019-06-07T21:39:22.280Z,18.30
2019-06-07T21:43:28.002Z,18.50
2019-06-07T21:47:33.724Z,18.10
2019-06-07T21:51:39.531Z,18.10
2019-06-07T21:55:45.250Z,18.70
2019-06-07T21:59:50.959Z,18.30
2019-06-07T22:03:56.882Z,18.00
2019-06-07T22:08:03.708Z,17.90
2019-06-07T22:12:10.130Z,17.90
2019-06-07T22:16:26.234Z,17.90
2019-06-07T22:20:23.220Z,17.70
2019-06-07T22:24:28.953Z,18.20
2019-06-07T22:28:34.651Z,17.90
2019-06-07T22:32:40.473Z,18.10
2019-06-07T22:36:47.351Z,17.80
2019-06-07T22:40:53.092Z,17.40
2019-06-07T22:44:58.821Z,17.60
2019-06-07T22:49:04.626Z,17.90
2019-06-07T22:53:11.379Z,17.30
2019-06-07T22:57:27.710Z,16.80
2019-06-07T23:01:33.471Z,16.90
2019-06-07T23:05:39.200Z,16.70
2019-06-07T23:09:44.940Z,16.60
2019-06-07T23:13:50.639Z,16.90
2019-06-07T23:17:56.414Z,16.80
2019-06-07T23:22:02.196Z,16.50
2019-06-07T23:26:10.016Z,16.80
2019-06-07T23:30:16.650Z,16.80
2019-06-07T23:34:22.434Z,16.80
2019-06-07T23:38:28.146Z,17.00
2019-06-07T23:42:33.849Z,17.30
2019-06-07T23:46:39.582Z,17.40
2019-06-07T23:50:45.298Z,16.80
2019-06-07T23:54:51.028Z,17.00
2019-06-07T23:58:57.019Z,17.60
